Airport View

Enter AWOS ICAO identifier for current METAR.

ex. KFNL

KRZL 262320Z AUTO 32011G20KT 10SM SCT024 OVC040 M02/M05 A3004 RMK AO2

26 Feb 2020 23:26

Frequency: 119.175

Phone: 219-866-7167

Other Area AWOS: KMCX - KIKK - KVPZ - KOXI

TAF AMD KLAF 262131Z 2622/2718 33016G24KT 4SM -SN SCT008 OVC025 TEMPO 2622/2623 1 1/2SM -SN BKN008 FM270000 32015KT P6SM VCSH OVC020 FM270300 31014KT P6SM BKN025 FM270400 31013KT P6SM BKN050 FM271100 29009KT P6SM BKN020